Time;durP1;ratioP1;P1;durP2;ratioP2;P2;SDS_P1;SDS_P2;PMS_P1;PMS_P2;Temp;Humidity;BMP_temperature;BMP_pressure;BME280_temperature;BME280_humidity;BME280_pressure;Samples;Min_cycle;Max_cycle;Signal;HPM_P1;HPM_P2
2022/12/09 00:01:06;;;;;;;4.03;2.22;;;1.80;99.90;;;;;;4997253;28;20037;-91
2022/12/09 00:03:31;;;;;;;;;;;1.70;99.90;;;;;;4997419;28;20369;-91
2022/12/09 00:05:57;;;;;;;4.00;2.28;;;1.70;99.90;;;;;;4996003;28;19912;-92
2022/12/09 00:08:22;;;;;;;5.50;2.50;;;1.70;99.90;;;;;;4996410;28;20054;-92
2022/12/09 00:10:49;;;;;;;5.22;2.55;;;1.80;99.90;;;;;;4995890;28;20045;-92
2022/12/09 00:13:14;;;;;;;6.88;2.65;;;1.70;99.90;;;;;;4998215;28;20031;-92
2022/12/09 00:15:43;;;;;;;3.25;2.20;;;1.70;99.90;;;;;;5001233;28;20036;-91
2022/12/09 00:18:09;;;;;;;4.82;2.00;;;1.70;99.90;;;;;;5014464;28;20026;-91
2022/12/09 00:20:35;;;;;;;3.85;2.17;;;1.70;99.90;;;;;;5009696;28;20162;-90
2022/12/09 00:23:01;;;;;;;4.75;1.60;;;1.70;99.90;;;;;;5010374;28;20030;-91
2022/12/09 00:25:26;;;;;;;2.80;1.77;;;1.70;99.90;;;;;;5003180;28;20073;-92
2022/12/09 00:27:52;;;;;;;2.08;1.40;;;1.70;99.90;;;;;;4998071;28;20037;-92
2022/12/09 00:30:17;;;;;;;4.88;2.20;;;1.70;99.90;;;;;;4997601;28;20034;-91
2022/12/09 00:32:43;;;;;;;1.50;1.20;;;1.70;99.90;;;;;;4997856;28;20026;-91
2022/12/09 00:35:09;;;;;;;3.55;1.55;;;1.70;99.90;;;;;;4996330;28;20559;-91
2022/12/09 00:37:34;;;;;;;5.03;1.58;;;1.70;99.90;;;;;;4997484;28;20036;-91
2022/12/09 00:40:00;;;;;;;4.35;1.40;;;1.60;99.90;;;;;;5004282;28;20038;-91
2022/12/09 00:42:26;;;;;;;3.33;1.30;;;1.60;99.90;;;;;;5004491;28;20026;-91
2022/12/09 00:44:51;;;;;;;1.60;1.13;;;1.60;99.90;;;;;;4996637;28;20037;-91
2022/12/09 00:47:17;;;;;;;3.38;1.92;;;1.50;99.90;;;;;;4995001;28;20121;-91
2022/12/09 00:49:42;;;;;;;4.93;1.33;;;1.50;99.90;;;;;;4994218;28;20056;-90
2022/12/09 00:52:08;;;;;;;3.78;1.60;;;1.50;99.90;;;;;;4994172;28;20030;-90
2022/12/09 00:54:34;;;;;;;3.03;1.27;;;1.40;99.90;;;;;;4995391;28;20022;-89
2022/12/09 00:57:00;;;;;;;4.18;1.50;;;1.40;99.90;;;;;;4994196;28;20520;-91
2022/12/09 00:59:27;;;;;;;4.00;1.30;;;1.30;99.90;;;;;;4995238;28;20030;-90
2022/12/09 01:01:52;;;;;;;2.08;1.10;;;1.30;99.90;;;;;;4994983;28;20030;-92
2022/12/09 01:04:18;;;;;;;1.73;1.10;;;1.30;99.90;;;;;;4995147;28;20089;-91
2022/12/09 01:06:43;;;;;;;6.28;1.48;;;1.20;99.90;;;;;;4995613;28;20030;-92
2022/12/09 01:09:09;;;;;;;3.03;1.27;;;1.20;99.90;;;;;;4994029;28;20440;-91
2022/12/09 01:11:35;;;;;;;1.70;1.10;;;1.20;99.90;;;;;;4995196;28;20109;-92
2022/12/09 01:14:01;;;;;;;4.00;1.08;;;1.10;99.90;;;;;;4993497;28;20113;-91
2022/12/09 01:16:30;;;;;;;3.97;1.20;;;1.10;99.90;;;;;;4994571;28;20065;-90
2022/12/09 01:18:58;;;;;;;3.50;1.30;;;1.00;99.90;;;;;;4994281;28;20480;-92
2022/12/09 01:21:25;;;;;;;4.15;1.40;;;1.00;99.90;;;;;;4994630;28;20030;-88
2022/12/09 01:23:51;;;;;;;1.83;1.20;;;0.90;99.90;;;;;;4994032;28;20036;-91
2022/12/09 01:26:17;;;;;;;4.25;1.65;;;0.90;99.90;;;;;;4993218;28;20044;-91
2022/12/09 01:28:42;;;;;;;6.60;1.73;;;0.80;99.90;;;;;;4992805;28;20415;-89
2022/12/09 01:31:11;;;;;;;5.97;1.55;;;0.80;99.90;;;;;;4993881;28;20046;-91
2022/12/09 01:33:37;;;;;;;3.58;1.52;;;0.80;99.90;;;;;;4994936;28;20058;-91
2022/12/09 01:36:04;;;;;;;6.55;2.22;;;0.80;99.90;;;;;;4994856;28;20491;-90
2022/12/09 01:38:30;;;;;;;7.65;2.40;;;0.80;99.90;;;;;;4993144;28;20034;-90
2022/12/09 01:40:56;;;;;;;4.68;2.15;;;0.70;99.90;;;;;;4994182;28;20076;-90
2022/12/09 01:43:22;;;;;;;4.72;2.20;;;0.70;99.90;;;;;;4994218;28;20068;-90
2022/12/09 01:45:48;;;;;;;3.28;2.15;;;0.60;99.90;;;;;;4993358;28;20026;-91
2022/12/09 01:48:20;;;;;;;7.38;1.65;;;0.60;99.90;;;;;;4993582;28;20030;-91
2022/12/09 01:50:48;;;;;;;5.00;1.65;;;0.60;99.90;;;;;;4993619;28;20042;-91
2022/12/09 01:53:15;;;;;;;2.80;1.38;;;0.70;99.90;;;;;;4994346;28;20030;-91
2022/12/09 01:55:41;;;;;;;4.50;2.53;;;0.70;99.90;;;;;;4992804;28;20039;-91
2022/12/09 01:58:07;;;;;;;5.00;1.65;;;0.70;99.90;;;;;;4991541;28;20034;-90
2022/12/09 02:00:32;;;;;;;5.10;1.40;;;0.70;99.90;;;;;;4992024;28;20057;-89
2022/12/09 02:03:00;;;;;;;6.70;1.23;;;0.70;99.90;;;;;;4992395;28;20031;-91
2022/12/09 02:05:27;;;;;;;3.97;1.52;;;0.60;99.90;;;;;;4992743;28;20057;-90
2022/12/09 02:07:52;;;;;;;5.97;1.65;;;0.60;99.90;;;;;;4992627;28;20026;-90
2022/12/09 02:10:19;;;;;;;7.07;2.40;;;0.60;99.90;;;;;;4994177;28;20048;-90
2022/12/09 02:13:12;;;;;;;4.35;1.30;;;0.60;99.90;;;;;;4993026;28;20027;-90
2022/12/09 02:15:51;;;;;;;8.32;1.23;;;0.50;99.90;;;;;;4991844;28;20084;-88
2022/12/09 02:18:35;;;;;;;3.35;1.27;;;0.50;99.90;;;;;;4991754;28;20023;-91
2022/12/09 02:21:07;;;;;;;3.38;1.20;;;0.50;99.90;;;;;;4988982;28;20034;-91
2022/12/09 02:23:52;;;;;;;4.93;1.40;;;0.40;99.90;;;;;;4991204;28;20109;-90
2022/12/09 02:26:39;;;;;;;10.88;1.20;;;0.50;99.90;;;;;;4991930;28;20488;-90
2022/12/09 02:29:15;;;;;;;9.45;1.65;;;0.40;99.90;;;;;;4991112;28;20034;-90
2022/12/09 02:32:10;;;;;;;5.50;1.15;;;0.40;99.90;;;;;;5008366;28;20129;-91
2022/12/09 02:34:42;;;;;;;3.65;0.80;;;0.40;99.90;;;;;;4958439;28;20073;-90
2022/12/09 02:37:29;;;;;;;4.63;1.23;;;0.30;99.90;;;;;;4951469;29;20600;-90
2022/12/09 02:40:14;;;;;;;1.83;1.10;;;0.30;99.90;;;;;;4952375;29;20031;-90
2022/12/09 02:42:43;;;;;;;7.05;1.38;;;0.20;99.90;;;;;;4952473;29;20039;-90
2022/12/09 02:45:10;;;;;;;5.68;1.60;;;0.20;99.90;;;;;;4951150;29;20058;-90
2022/12/09 02:47:41;;;;;;;6.35;1.50;;;0.20;99.90;;;;;;4951210;29;20135;-90
2022/12/09 02:50:12;;;;;;;4.05;1.38;;;0.10;99.90;;;;;;4952100;29;20537;-90
2022/12/09 02:52:38;;;;;;;3.63;1.05;;;0.10;99.90;;;;;;4951838;29;20039;-90
2022/12/09 02:55:08;;;;;;;3.25;1.95;;;0.00;99.90;;;;;;4952259;29;20035;-90
2022/12/09 02:57:36;;;;;;;7.80;1.33;;;0.00;99.90;;;;;;4952156;29;20126;-90
2022/12/09 03:00:04;;;;;;;4.93;1.52;;;0.00;99.90;;;;;;4952591;29;20027;-90
2022/12/09 03:02:36;;;;;;;2.13;1.02;;;0.00;99.90;;;;;;4952520;29;20038;-91
2022/12/09 03:05:28;;;;;;;2.67;1.70;;;-0.10;99.90;;;;;;4952368;28;20050;-91
2022/12/09 03:07:57;;;;;;;3.45;1.30;;;-0.10;99.90;;;;;;4951800;29;20086;-89
2022/12/09 03:10:30;;;;;;;4.88;1.10;;;-0.10;99.90;;;;;;4959408;28;20141;-90
2022/12/09 03:13:04;;;;;;;9.43;1.33;;;-0.10;99.90;;;;;;4973381;28;20023;-90
2022/12/09 03:15:33;;;;;;;6.40;1.00;;;-0.20;99.90;;;;;;4971825;28;20452;-90
2022/12/09 03:18:04;;;;;;;3.38;1.00;;;-0.20;99.90;;;;;;4973027;28;20033;-91
2022/12/09 03:20:35;;;;;;;5.22;1.13;;;-0.20;99.90;;;;;;4973003;28;20031;-90
2022/12/09 03:23:02;;;;;;;6.40;1.52;;;-0.30;99.90;;;;;;4973312;28;20034;-89
2022/12/09 03:25:37;;;;;;;7.05;1.40;;;-0.30;99.90;;;;;;4973133;28;20046;-90
2022/12/09 03:28:20;;;;;;;5.65;1.33;;;-0.30;99.90;;;;;;4975718;28;20034;-90
2022/12/09 03:30:46;;;;;;;5.90;1.10;;;-0.40;99.90;;;;;;4980918;28;20043;-90
2022/12/09 03:33:16;;;;;;;8.73;1.50;;;-0.40;99.90;;;;;;4976965;28;20603;-91
2022/12/09 03:35:49;;;;;;;3.67;0.85;;;-0.40;99.90;;;;;;4972556;28;20053;-91
2022/12/09 03:38:17;;;;;;;5.70;1.50;;;-0.50;99.90;;;;;;4973240;28;20500;-91
2022/12/09 03:40:45;;;;;;;2.85;1.33;;;-0.50;99.90;;;;;;4976276;28;20489;-90
2022/12/09 03:43:43;;;;;;;3.88;1.17;;;-0.50;99.90;;;;;;4975503;28;20022;-91
2022/12/09 03:46:09;;;;;;;4.22;1.38;;;-0.50;99.90;;;;;;4987304;28;20051;-88
2022/12/09 03:48:35;;;;;;;4.68;1.35;;;-0.50;99.90;;;;;;4975814;28;20070;-89
2022/12/09 03:51:13;;;;;;;3.35;1.05;;;-0.60;99.90;;;;;;4975890;28;20062;-91
2022/12/09 03:53:49;;;;;;;4.68;1.23;;;-0.60;99.90;;;;;;4974700;28;20042;-90
2022/12/09 03:56:20;;;;;;;5.50;1.45;;;-0.60;99.90;;;;;;4974830;28;20130;-90
2022/12/09 03:58:49;;;;;;;3.72;1.10;;;-0.60;99.90;;;;;;4979217;28;20474;-91
2022/12/09 04:01:16;;;;;;;4.32;0.80;;;-0.60;99.90;;;;;;4976286;28;20093;-91
2022/12/09 04:03:44;;;;;;;8.60;1.17;;;-0.70;99.90;;;;;;4974846;28;20030;-90
2022/12/09 04:06:10;;;;;;;4.57;1.40;;;-0.70;99.90;;;;;;4974447;28;20130;-90
2022/12/09 04:08:35;;;;;;;7.30;1.38;;;-0.80;99.90;;;;;;4975883;28;20141;-90
2022/12/09 04:11:01;;;;;;;5.25;1.25;;;-0.80;99.90;;;;;;4974805;28;20435;-90
2022/12/09 04:13:26;;;;;;;4.18;1.02;;;-0.80;99.90;;;;;;4976770;28;20093;-90
2022/12/09 04:15:52;;;;;;;8.32;1.20;;;-0.80;99.90;;;;;;4977030;28;20623;-90
2022/12/09 04:18:18;;;;;;;5.20;1.17;;;-0.80;99.90;;;;;;4975692;28;20034;-90
2022/12/09 04:20:43;;;;;;;11.68;2.15;;;-0.90;99.90;;;;;;4975346;28;20085;-90
2022/12/09 04:23:09;;;;;;;4.32;1.00;;;-0.90;99.90;;;;;;4975376;28;20504;-89
2022/12/09 04:25:36;;;;;;;13.02;1.20;;;-0.90;99.90;;;;;;4975321;28;20133;-90
2022/12/09 04:28:02;;;;;;;8.35;1.20;;;-1.00;99.90;;;;;;4974687;28;20033;-90
2022/12/09 04:30:28;;;;;;;3.38;1.02;;;-1.00;99.90;;;;;;4974802;28;20031;-88
2022/12/09 04:32:53;;;;;;;8.23;1.10;;;-1.10;99.90;;;;;;4974440;28;20035;-90
2022/12/09 04:35:19;;;;;;;2.70;1.23;;;-1.10;99.90;;;;;;4974321;28;20454;-89
2022/12/09 04:37:45;;;;;;;3.47;1.17;;;-1.10;99.90;;;;;;4974470;28;20425;-90
2022/12/09 04:40:11;;;;;;;3.67;2.03;;;-1.20;99.90;;;;;;4979865;28;20050;-90
2022/12/09 04:42:37;;;;;;;2.15;0.88;;;-1.20;99.90;;;;;;4979833;28;20039;-89
2022/12/09 04:45:03;;;;;;;5.93;1.35;;;-1.20;99.90;;;;;;4990605;28;20041;-90
2022/12/09 04:47:28;;;;;;;8.18;1.17;;;-1.30;99.90;;;;;;4979508;28;20046;-90
2022/12/09 04:49:54;;;;;;;8.57;1.35;;;-1.30;99.90;;;;;;4976381;28;20035;-90
2022/12/09 04:52:19;;;;;;;9.02;1.65;;;-1.30;99.90;;;;;;4974846;28;20046;-90
2022/12/09 04:54:45;;;;;;;4.35;1.42;;;-1.30;99.90;;;;;;4974257;28;20480;-90
2022/12/09 04:57:11;;;;;;;4.47;1.02;;;-1.30;99.90;;;;;;4973894;28;20065;-89
2022/12/09 04:59:37;;;;;;;10.15;1.83;;;-1.30;99.90;;;;;;4973320;28;20562;-91
2022/12/09 05:02:03;;;;;;;6.07;1.08;;;-1.30;99.90;;;;;;4973181;28;20026;-89
2022/12/09 05:04:29;;;;;;;9.65;1.30;;;-1.30;99.90;;;;;;4973233;28;20053;-90
2022/12/09 05:06:54;;;;;;;9.07;1.35;;;-1.40;99.90;;;;;;4972409;28;20066;-88
2022/12/09 05:09:20;;;;;;;9.68;1.50;;;-1.40;99.90;;;;;;4973919;28;20030;-89
2022/12/09 05:11:47;;;;;;;8.32;1.77;;;-1.50;99.90;;;;;;4972613;28;20062;-90
2022/12/09 05:14:13;;;;;;;6.13;1.58;;;-1.60;99.90;;;;;;4978378;28;20415;-88
2022/12/09 05:16:38;;;;;;;3.58;1.33;;;-1.60;99.90;;;;;;4992375;28;20041;-89
2022/12/09 05:19:04;;;;;;;8.77;1.85;;;-1.60;99.90;;;;;;4992464;28;20035;-89
2022/12/09 05:21:30;;;;;;;3.92;1.23;;;-1.60;99.90;;;;;;4994276;28;20101;-90
2022/12/09 05:23:55;;;;;;;4.97;1.25;;;-1.60;99.90;;;;;;4992366;28;20042;-90
2022/12/09 05:26:22;;;;;;;5.65;1.50;;;-1.60;99.90;;;;;;4993186;28;20483;-89
2022/12/09 05:28:48;;;;;;;4.25;1.05;;;-1.60;99.90;;;;;;4993076;28;20495;-89
2022/12/09 05:31:18;;;;;;;9.90;1.40;;;-1.60;99.90;;;;;;4993271;28;20042;-90
2022/12/09 05:33:44;;;;;;;9.25;1.35;;;-1.50;99.90;;;;;;4992858;28;20121;-89
2022/12/09 05:36:11;;;;;;;4.20;1.02;;;-1.60;99.90;;;;;;4993060;28;20034;-89
2022/12/09 05:38:37;;;;;;;6.18;1.30;;;-1.60;99.90;;;;;;4992184;28;20108;-90
2022/12/09 05:41:03;;;;;;;7.75;1.05;;;-1.70;99.90;;;;;;4993603;28;20440;-89
2022/12/09 05:43:31;;;;;;;4.50;1.38;;;-1.70;99.90;;;;;;4991937;28;20499;-89
2022/12/09 05:45:56;;;;;;;3.47;1.00;;;-1.70;99.90;;;;;;4993646;28;20093;-89
2022/12/09 05:48:22;;;;;;;4.80;1.33;;;-1.80;99.90;;;;;;4993015;28;20026;-90
2022/12/09 05:50:58;;;;;;;5.57;1.13;;;-1.80;99.90;;;;;;4993008;28;20193;-89
2022/12/09 05:53:25;;;;;;;4.38;1.38;;;-1.80;99.90;;;;;;4992616;28;20027;-90
2022/12/09 05:55:51;;;;;;;4.43;1.77;;;-1.80;99.90;;;;;;4991512;28;20034;-90
2022/12/09 05:58:16;;;;;;;6.05;1.70;;;-1.90;99.90;;;;;;4992596;28;20483;-90
2022/12/09 06:00:42;;;;;;;8.07;1.20;;;-1.90;99.90;;;;;;4990530;28;20085;-89
2022/12/09 06:03:08;;;;;;;8.20;1.30;;;-1.90;99.90;;;;;;4991579;28;20366;-89
2022/12/09 06:05:33;;;;;;;4.00;1.17;;;-2.00;99.90;;;;;;4992535;28;20113;-87
2022/12/09 06:07:59;;;;;;;7.18;1.50;;;-2.00;99.90;;;;;;4991369;28;20097;-88
2022/12/09 06:10:25;;;;;;;7.80;1.55;;;-2.00;99.90;;;;;;4992821;28;20042;-89
2022/12/09 06:12:54;;;;;;;9.40;1.58;;;-2.00;99.90;;;;;;4993235;28;20052;-89
2022/12/09 06:15:20;;;;;;;8.77;1.30;;;-2.00;99.90;;;;;;4992123;28;20030;-90
2022/12/09 06:17:46;;;;;;;9.07;1.70;;;-2.10;99.90;;;;;;4993119;28;20097;-89
2022/12/09 06:20:11;;;;;;;4.43;1.33;;;-2.10;99.90;;;;;;4992337;28;20113;-90
2022/12/09 06:22:37;;;;;;;12.23;1.60;;;-2.10;99.90;;;;;;4991037;28;20030;-90
2022/12/09 06:25:04;;;;;;;7.40;1.60;;;-2.20;99.90;;;;;;4992475;28;20050;-89
2022/12/09 06:27:30;;;;;;;9.43;2.08;;;-2.20;99.90;;;;;;4992236;28;20034;-89
2022/12/09 06:29:55;;;;;;;8.38;1.50;;;-2.30;99.90;;;;;;4990451;28;20030;-90
2022/12/09 06:32:21;;;;;;;15.70;1.80;;;-2.30;99.90;;;;;;4991659;28;20038;-90
2022/12/09 06:34:47;;;;;;;6.32;1.95;;;-2.30;99.90;;;;;;4992572;28;20165;-90
2022/12/09 06:37:15;;;;;;;8.98;1.88;;;-2.30;99.90;;;;;;4992421;28;20034;-89
2022/12/09 06:39:41;;;;;;;3.65;1.20;;;-2.30;99.90;;;;;;4991551;28;20492;-90
2022/12/09 06:42:06;;;;;;;9.93;1.80;;;-2.40;99.90;;;;;;4991219;28;20030;-90
2022/12/09 06:44:32;;;;;;;5.35;1.90;;;-2.40;99.90;;;;;;4991379;28;20034;-90
2022/12/09 06:46:58;;;;;;;6.97;1.80;;;-2.40;99.90;;;;;;4992689;28;20101;-90
2022/12/09 06:49:23;;;;;;;8.38;1.88;;;-2.50;99.90;;;;;;4992673;28;20121;-90
2022/12/09 06:51:49;;;;;;;6.25;1.30;;;-2.50;99.90;;;;;;4992694;28;20030;-90
2022/12/09 06:54:15;;;;;;;9.70;2.38;;;-2.60;99.90;;;;;;4986350;28;20488;-90
2022/12/09 06:56:41;;;;;;;11.20;2.35;;;-2.60;99.90;;;;;;4984412;28;20034;-90
2022/12/09 06:59:08;;;;;;;6.15;1.70;;;-2.60;99.90;;;;;;4983951;28;20027;-90
2022/12/09 07:01:34;;;;;;;5.47;1.77;;;-2.70;99.90;;;;;;4980095;28;20081;-90
2022/12/09 07:04:01;;;;;;;6.93;1.60;;;-2.70;99.90;;;;;;4982064;28;20097;-90
2022/12/09 07:06:30;;;;;;;9.52;1.92;;;-2.70;99.90;;;;;;4983104;28;20034;-90
2022/12/09 07:08:58;;;;;;;9.98;1.67;;;-2.80;99.90;;;;;;4980091;28;20031;-90
2022/12/09 07:11:23;;;;;;;4.32;1.70;;;-2.80;99.90;;;;;;4982371;28;20043;-90
2022/12/09 07:13:50;;;;;;;8.40;1.85;;;-2.80;99.90;;;;;;4983485;28;20081;-90
2022/12/09 07:16:15;;;;;;;8.85;2.30;;;-2.80;99.90;;;;;;4986145;28;20038;-89
2022/12/09 07:18:41;;;;;;;7.00;1.70;;;-2.80;99.90;;;;;;4987799;28;20029;-89
2022/12/09 07:21:11;;;;;;;9.65;1.67;;;-2.80;99.90;;;;;;4985191;28;20019;-89
2022/12/09 07:23:37;;;;;;;6.13;1.30;;;-2.90;99.90;;;;;;4985919;28;20384;-89
2022/12/09 07:26:07;;;;;;;5.78;1.60;;;-2.90;99.90;;;;;;4982491;28;20499;-88
2022/12/09 07:28:33;;;;;;;6.82;1.63;;;-2.90;99.90;;;;;;4990197;28;20031;-92
2022/12/09 07:30:59;;;;;;;5.00;1.58;;;-2.90;99.90;;;;;;4988691;28;20029;-89
2022/12/09 07:33:26;;;;;;;5.60;1.33;;;-2.90;99.90;;;;;;4988122;28;20109;-89
2022/12/09 07:35:56;;;;;;;8.23;2.28;;;-3.00;99.90;;;;;;4988890;28;20114;-90
2022/12/09 07:38:23;;;;;;;11.85;1.45;;;-3.00;99.90;;;;;;4995036;28;20403;-88
2022/12/09 07:40:49;;;;;;;15.05;2.03;;;-3.00;99.90;;;;;;4986019;28;20026;-89
2022/12/09 07:43:14;;;;;;;8.48;1.90;;;-3.10;99.90;;;;;;4986012;28;20022;-91
2022/12/09 07:45:40;;;;;;;6.93;2.22;;;-3.20;99.90;;;;;;4976255;28;20110;-90
2022/12/09 07:48:07;;;;;;;6.03;2.22;;;-3.20;99.90;;;;;;4976762;28;20469;-90
2022/12/09 07:50:34;;;;;;;5.68;1.60;;;-3.20;99.90;;;;;;4975031;28;20058;-89
2022/12/09 07:53:00;;;;;;;10.27;2.28;;;-3.30;99.90;;;;;;4976508;28;20055;-89
2022/12/09 07:55:25;;;;;;;6.72;1.90;;;-3.30;99.90;;;;;;4981031;28;20551;-91
2022/12/09 07:57:51;;;;;;;7.53;2.03;;;-3.30;99.90;;;;;;4978327;28;20027;-89
2022/12/09 08:00:18;;;;;;;6.05;1.55;;;-3.30;99.90;;;;;;5013927;28;20030;-89
2022/12/09 08:02:43;;;;;;;6.40;1.10;;;-3.30;99.90;;;;;;5003256;28;20038;-90
2022/12/09 08:05:09;;;;;;;5.78;1.45;;;-3.30;99.90;;;;;;5000913;28;20023;-91
2022/12/09 08:07:34;;;;;;;5.60;1.50;;;-3.30;99.90;;;;;;4997465;28;20037;-89
2022/12/09 08:10:00;;;;;;;7.40;1.52;;;-3.30;99.90;;;;;;4994485;28;20520;-91
2022/12/09 08:12:26;;;;;;;4.93;1.70;;;-3.30;99.90;;;;;;4990766;28;20058;-91
2022/12/09 08:14:51;;;;;;;11.98;1.65;;;-3.30;99.90;;;;;;4984475;28;20517;-92
2022/12/09 08:17:17;;;;;;;6.63;1.83;;;-3.20;99.90;;;;;;4976077;28;20058;-92
2022/12/09 08:19:42;;;;;;;6.75;2.65;;;-3.20;99.90;;;;;;4975910;28;20054;-92
2022/12/09 08:22:08;;;;;;;5.18;3.33;;;-3.20;99.90;;;;;;4985071;28;20026;-92
2022/12/09 08:24:37;;;;;;;22.45;8.60;;;-3.10;99.90;;;;;;4991792;28;20045;-93
2022/12/09 08:27:03;;;;;;;15.38;4.72;;;-3.10;99.90;;;;;;4986152;28;20502;-91
2022/12/09 08:29:28;;;;;;;6.65;2.78;;;-3.10;99.90;;;;;;4988790;28;20030;-93
2022/12/09 08:31:54;;;;;;;17.25;4.43;;;-3.10;99.90;;;;;;4997156;28;20133;-95
2022/12/09 08:34:20;;;;;;;7.80;3.63;;;-3.10;99.90;;;;;;4984908;28;20042;-93
2022/12/09 08:36:45;;;;;;;7.68;2.30;;;-3.10;99.90;;;;;;4985391;28;20469;-94
2022/12/09 08:39:12;;;;;;;8.00;2.15;;;-3.10;99.90;;;;;;4987951;28;20042;-94
2022/12/09 08:41:38;;;;;;;7.85;2.00;;;-3.10;99.90;;;;;;4987525;28;20034;-92
2022/12/09 08:44:07;;;;;;;17.63;3.63;;;-3.10;99.90;;;;;;4991431;28;20045;-93
2022/12/09 08:46:34;;;;;;;19.58;6.63;;;-3.10;99.90;;;;;;4991754;28;20039;-92
2022/12/09 08:49:00;;;;;;;26.35;9.98;;;-3.10;99.90;;;;;;4990431;28;20027;-90
2022/12/09 08:51:28;;;;;;;12.93;6.43;;;-3.10;99.90;;;;;;5007240;28;20026;-93
2022/12/09 08:54:03;;;;;;;16.17;5.65;;;-3.10;99.90;;;;;;5018796;28;20006;-93
2022/12/09 08:56:29;;;;;;;12.02;4.63;;;-3.10;99.90;;;;;;5008668;28;20058;-94
2022/12/09 08:58:57;;;;;;;18.50;6.70;;;-3.10;99.90;;;;;;5015217;28;20034;-94
2022/12/09 09:01:33;;;;;;;8.57;4.05;;;-3.10;99.90;;;;;;5156643;23;20098;-93
2022/12/09 09:04:07;;;;;;;17.10;4.50;;;-3.10;99.90;;;;;;4999799;28;20015;-93
2022/12/09 09:06:33;;;;;;;18.48;7.25;;;-3.10;99.90;;;;;;4999594;28;20007;-94
2022/12/09 09:09:08;;;;;;;30.48;9.60;;;-3.20;99.90;;;;;;4975234;28;20039;-92
2022/12/09 09:11:36;;;;;;;26.33;9.05;;;-3.20;99.90;;;;;;5000053;28;20029;-94
2022/12/09 09:14:05;;;;;;;32.50;11.32;;;-3.20;99.90;;;;;;4992114;28;19995;-93
2022/12/09 09:16:32;;;;;;;33.38;11.70;;;-3.20;99.90;;;;;;4998993;28;20030;-92
2022/12/09 09:19:04;;;;;;;20.80;7.50;;;-3.10;99.90;;;;;;4999894;28;20003;-94
2022/12/09 09:21:36;;;;;;;14.38;6.82;;;-3.00;99.90;;;;;;4996389;28;20039;-93
2022/12/09 09:24:08;;;;;;;14.85;6.95;;;-2.70;99.90;;;;;;4998089;28;20029;-93
2022/12/09 09:26:33;;;;;;;21.55;7.35;;;-2.60;99.90;;;;;;5006719;28;20019;-92
2022/12/09 09:28:59;;;;;;;14.88;6.55;;;-2.40;99.90;;;;;;4996480;28;20031;-91
2022/12/09 09:31:27;;;;;;;15.82;6.18;;;-2.20;99.90;;;;;;4998363;28;20030;-92
2022/12/09 09:33:55;;;;;;;13.68;5.43;;;-2.00;99.90;;;;;;5014524;28;20019;-92
2022/12/09 09:36:22;;;;;;;15.43;5.45;;;-1.90;99.90;;;;;;5014437;28;20023;-92
2022/12/09 09:38:51;;;;;;;16.80;5.82;;;-1.80;99.90;;;;;;4998947;28;20046;-92
2022/12/09 09:41:23;;;;;;;13.95;4.53;;;-1.70;99.90;;;;;;5014162;28;20026;-91
2022/12/09 09:43:54;;;;;;;17.00;5.47;;;-1.60;99.90;;;;;;4998489;28;20023;-92
2022/12/09 09:46:34;;;;;;;14.15;4.97;;;-1.40;99.90;;;;;;5015302;28;20030;-92
2022/12/09 09:49:09;;;;;;;16.35;6.15;;;-1.20;99.90;;;;;;5015535;28;20015;-92
2022/12/09 09:51:36;;;;;;;23.13;7.35;;;-0.90;99.90;;;;;;4995671;28;20040;-94
2022/12/09 09:54:03;;;;;;;24.13;9.70;;;-0.60;99.90;;;;;;4992724;28;20035;-93
2022/12/09 09:56:59;;;;;;;22.33;8.32;;;-0.30;99.90;;;;;;4995749;28;20105;-93
2022/12/09 10:00:11;;;;;;;24.48;8.70;;;0.10;99.90;;;;;;5011943;28;20043;-93
2022/12/09 10:02:56;;;;;;;21.23;7.05;;;0.50;99.90;;;;;;4943758;28;20050;-94
2022/12/09 10:05:34;;;;;;;19.00;7.38;;;0.90;99.90;;;;;;4943183;28;20063;-96
2022/12/09 10:08:27;;;;;;;21.23;7.32;;;1.30;99.90;;;;;;4924350;29;20015;-95
2022/12/09 10:11:46;;;;;;;11.63;5.07;;;1.70;99.90;;;;;;4934327;28;20038;-96
2022/12/09 10:14:44;;;;;;;20.40;7.10;;;2.10;99.90;;;;;;4941441;28;20052;-94
2022/12/09 10:17:32;;;;;;;16.63;6.45;;;2.60;99.90;;;;;;4932917;28;20032;-96
2022/12/09 10:20:13;;;;;;;14.20;5.25;;;2.90;99.90;;;;;;4942083;28;20028;-96
2022/12/09 10:22:48;;;;;;;15.40;5.03;;;3.20;99.90;;;;;;4924080;29;20040;-94
2022/12/09 10:25:21;;;;;;;10.90;4.28;;;3.50;99.90;;;;;;4938087;29;20070;-96
2022/12/09 10:27:55;;;;;;;16.48;6.18;;;3.60;99.90;;;;;;4926319;29;20124;-94
2022/12/09 10:30:21;;;;;;;22.67;6.40;;;3.90;99.90;;;;;;4928584;29;20036;-96
2022/12/09 10:32:47;;;;;;;13.23;5.28;;;4.20;99.90;;;;;;4931011;29;20046;-94
2022/12/09 10:35:13;;;;;;;14.85;5.28;;;4.40;99.90;;;;;;4940386;28;20135;-95
2022/12/09 10:37:39;;;;;;;13.82;4.80;;;4.70;99.90;;;;;;4934785;29;20036;-94
2022/12/09 10:40:18;;;;;;;9.23;4.35;;;4.90;99.90;;;;;;4992329;28;20034;-94
2022/12/09 10:45:56;;;;;;;15.27;5.53;;;5.40;99.90;;;;;;4992076;28;20165;-96
2022/12/09 10:48:38;;;;;;;15.88;4.32;;;5.70;99.90;;;;;;5002713;28;20098;-96
2022/12/09 10:51:11;;;;;;;7.82;3.50;;;5.90;99.90;;;;;;5005068;28;20074;-96
2022/12/09 10:53:50;;;;;;;11.45;3.75;;;6.10;99.90;;;;;;5009220;28;20045;-96
2022/12/09 10:56:29;;;;;;;10.63;3.33;;;6.20;99.90;;;;;;4999129;28;20039;-95
2022/12/09 10:59:08;;;;;;;12.60;3.42;;;6.40;99.90;;;;;;5001280;28;20065;-95
2022/12/09 11:02:00;;;;;;;15.70;5.65;;;6.50;99.90;;;;;;4997751;28;20045;-93
2022/12/09 11:04:33;;;;;;;14.82;5.93;;;6.80;99.90;;;;;;5007257;28;20035;-94
2022/12/09 11:07:11;;;;;;;14.32;5.35;;;7.00;99.90;;;;;;5010030;28;20030;-96
2022/12/09 11:09:40;;;;;;;14.93;4.40;;;7.00;99.90;;;;;;4997385;28;20039;-95
2022/12/09 11:12:28;;;;;;;16.10;6.53;;;7.20;99.90;;;;;;5009250;28;20031;-95
2022/12/09 11:15:07;;;;;;;15.60;5.60;;;7.10;99.90;;;;;;4989553;28;20037;-95
2022/12/09 11:17:54;;;;;;;13.25;5.32;;;7.10;99.90;;;;;;4997417;28;20031;-94
2022/12/09 11:20:22;;;;;;;15.32;6.13;;;7.20;99.90;;;;;;4998029;28;20023;-94
2022/12/09 11:23:08;;;;;;;15.35;5.60;;;7.30;99.90;;;;;;5010512;28;20114;-95
2022/12/09 11:25:45;;;;;;;;;;;;;;;;;;;;;
2022/12/09 11:28:57;;;;;;;16.85;5.38;;;7.10;98.50;;;;;;4993766;28;20046;-95
2022/12/09 11:31:27;;;;;;;16.63;5.70;;;6.40;98.60;;;;;;4988501;28;20046;-96
2022/12/09 11:33:56;;;;;;;17.15;5.60;;;5.80;99.70;;;;;;4988525;28;20035;-93
2022/12/09 11:39:39;;;;;;;14.07;5.93;;;5.10;99.90;;;;;;4959327;29;20031;-95
2022/12/09 11:42:13;;;;;;;13.88;5.45;;;4.90;99.90;;;;;;4955217;28;20036;-95
2022/12/09 11:44:43;;;;;;;12.38;6.07;;;5.10;99.90;;;;;;4965293;28;20478;-96
2022/12/09 11:47:29;;;;;;;11.00;6.20;;;5.50;99.90;;;;;;4952489;29;20202;-96
2022/12/09 11:50:35;;;;;;;;;;;;;;;;;;;;;
2022/12/09 11:53:24;;;;;;;15.80;6.60;;;6.00;99.90;;;;;;4959082;29;20114;-95
2022/12/09 11:56:17;;;;;;;15.88;7.15;;;6.00;99.90;;;;;;4951568;28;20043;-95
2022/12/09 11:59:07;;;;;;;13.23;6.70;;;6.00;99.90;;;;;;4948090;28;20035;-96
2022/12/09 12:02:08;;;;;;;12.38;6.72;;;5.80;99.90;;;;;;4945249;29;20085;-95
2022/12/09 12:04:58;;;;;;;14.73;5.88;;;5.60;99.90;;;;;;4947940;29;20027;-94
2022/12/09 12:07:31;;;;;;;10.60;6.13;;;5.50;99.90;;;;;;4949103;29;20104;-95
2022/12/09 12:10:16;;;;;;;14.90;5.90;;;5.30;99.90;;;;;;4951428;29;20043;-95
2022/12/09 12:13:20;;;;;;;18.58;6.03;;;5.50;99.90;;;;;;4950471;29;20059;-95
2022/12/09 12:15:58;;;;;;;10.82;4.93;;;6.00;99.90;;;;;;4952153;29;20039;-95
2022/12/09 12:18:37;;;;;;;13.55;4.93;;;6.80;99.90;;;;;;4963073;29;20023;-96
2022/12/09 12:21:18;;;;;;;15.07;5.47;;;7.40;99.90;;;;;;4961932;28;20046;-95
2022/12/09 12:24:08;;;;;;;15.98;5.95;;;7.90;99.90;;;;;;4962156;29;20016;-94
2022/12/09 12:27:03;;;;;;;10.65;4.40;;;8.40;99.80;;;;;;4961875;29;20051;-96
2022/12/09 12:30:00;;;;;;;11.00;4.28;;;8.90;97.50;;;;;;4960199;29;20034;-94
2022/12/09 12:32:38;;;;;;;17.70;4.60;;;9.40;96.00;;;;;;4990044;28;20055;-94
2022/12/09 12:35:44;;;;;;;14.43;5.38;;;9.90;94.80;;;;;;4977870;28;20045;-96
2022/12/09 12:38:38;;;;;;;12.90;4.22;;;10.50;93.10;;;;;;4978293;28;20030;-95
2022/12/09 12:41:27;;;;;;;10.40;4.30;;;11.00;91.20;;;;;;4977464;28;20054;-95
2022/12/09 12:47:28;;;;;;;9.18;3.70;;;11.90;88.10;;;;;;4979253;28;20381;-95
2022/12/09 12:50:17;;;;;;;10.23;3.67;;;12.20;84.90;;;;;;4977909;28;20023;-96
2022/12/09 12:53:13;;;;;;;9.13;3.40;;;12.40;83.00;;;;;;4977901;28;20057;-95
2022/12/09 12:55:48;;;;;;;9.05;3.60;;;12.60;81.80;;;;;;4978261;28;20113;-95
2022/12/09 12:58:31;;;;;;;8.75;3.55;;;13.00;80.70;;;;;;4977270;28;20026;-95
2022/12/09 13:01:05;;;;;;;11.77;6.10;;;13.30;79.10;;;;;;4984172;28;20061;-96
2022/12/09 13:03:56;;;;;;;10.15;3.28;;;13.60;78.30;;;;;;4984600;28;20015;-95
2022/12/09 13:06:52;;;;;;;10.77;3.22;;;13.90;76.20;;;;;;4984702;28;20038;-95
2022/12/09 13:09:41;;;;;;;5.80;2.85;;;14.00;75.30;;;;;;4982037;28;20031;-96
2022/12/09 13:15:15;;;;;;;6.97;2.90;;;14.30;73.10;;;;;;4969688;29;20098;-96
2022/12/09 13:17:44;;;;;;;5.03;2.70;;;13.70;71.20;;;;;;4977635;28;20137;-96
2022/12/09 13:20:17;;;;;;;7.57;3.22;;;13.20;71.20;;;;;;4990949;28;20030;-96
2022/12/09 13:22:50;;;;;;;7.45;3.53;;;12.80;70.90;;;;;;4987615;28;20039;-95
2022/12/09 13:25:40;;;;;;;7.05;3.80;;;12.30;71.20;;;;;;4972107;28;20032;-95